sensor_id;sensor_type;location;lat;lon;timestamp;P1;durP1;ratioP1;P2;durP2;ratioP2
31130;SDS011;20292;50.944;4.034;2022-08-19T00:00:19;59.65;;;40.97;;
31130;SDS011;20292;50.944;4.034;2022-08-19T00:02:45;63.47;;;43.60;;
31130;SDS011;20292;50.944;4.034;2022-08-19T00:05:11;61.58;;;42.13;;
31130;SDS011;20292;50.944;4.034;2022-08-19T00:07:38;65.53;;;42.63;;
31130;SDS011;20292;50.944;4.034;2022-08-19T00:10:07;62.13;;;42.03;;
31130;SDS011;20292;50.944;4.034;2022-08-19T00:12:34;64.35;;;44.03;;
31130;SDS011;20292;50.944;4.034;2022-08-19T00:15:01;71.80;;;47.85;;
31130;SDS011;20292;50.944;4.034;2022-08-19T00:17:26;68.90;;;43.65;;
31130;SDS011;20292;50.944;4.034;2022-08-19T00:19:52;68.70;;;45.80;;
31130;SDS011;20292;50.944;4.034;2022-08-19T00:22:17;67.70;;;45.20;;
31130;SDS011;20292;50.944;4.034;2022-08-19T00:24:44;69.72;;;44.80;;
31130;SDS011;20292;50.944;4.034;2022-08-19T00:27:10;65.57;;;45.45;;
31130;SDS011;20292;50.944;4.034;2022-08-19T00:29:36;67.82;;;47.15;;
31130;SDS011;20292;50.944;4.034;2022-08-19T00:32:02;67.68;;;44.92;;
31130;SDS011;20292;50.944;4.034;2022-08-19T00:34:29;67.85;;;45.65;;
31130;SDS011;20292;50.944;4.034;2022-08-19T00:36:55;69.28;;;46.10;;
31130;SDS011;20292;50.944;4.034;2022-08-19T00:39:21;70.22;;;45.80;;
31130;SDS011;20292;50.944;4.034;2022-08-19T00:41:50;64.90;;;44.65;;
31130;SDS011;20292;50.944;4.034;2022-08-19T00:44:21;65.75;;;44.22;;
31130;SDS011;20292;50.944;4.034;2022-08-19T00:46:48;66.72;;;43.65;;
31130;SDS011;20292;50.944;4.034;2022-08-19T00:52:09;69.13;;;43.22;;
31130;SDS011;20292;50.944;4.034;2022-08-19T00:54:39;66.25;;;44.10;;
31130;SDS011;20292;50.944;4.034;2022-08-19T00:57:06;68.30;;;46.15;;
31130;SDS011;20292;50.944;4.034;2022-08-19T00:59:35;65.95;;;44.92;;
31130;SDS011;20292;50.944;4.034;2022-08-19T01:02:03;64.97;;;43.90;;
31130;SDS011;20292;50.944;4.034;2022-08-19T01:04:29;58.13;;;41.13;;
31130;SDS011;20292;50.944;4.034;2022-08-19T01:06:55;63.67;;;40.28;;
31130;SDS011;20292;50.944;4.034;2022-08-19T01:09:22;59.10;;;39.03;;
31130;SDS011;20292;50.944;4.034;2022-08-19T01:11:47;55.50;;;38.60;;
31130;SDS011;20292;50.944;4.034;2022-08-19T01:14:14;56.35;;;36.88;;
31130;SDS011;20292;50.944;4.034;2022-08-19T01:16:42;50.58;;;35.08;;
31130;SDS011;20292;50.944;4.034;2022-08-19T01:19:27;50.65;;;34.80;;
31130;SDS011;20292;50.944;4.034;2022-08-19T01:22:01;48.40;;;35.08;;
31130;SDS011;20292;50.944;4.034;2022-08-19T01:24:30;54.13;;;35.33;;
31130;SDS011;20292;50.944;4.034;2022-08-19T01:26:56;47.70;;;34.38;;
31130;SDS011;20292;50.944;4.034;2022-08-19T01:29:22;49.47;;;34.75;;
31130;SDS011;20292;50.944;4.034;2022-08-19T01:31:48;52.60;;;34.17;;
31130;SDS011;20292;50.944;4.034;2022-08-19T01:34:18;49.50;;;34.20;;
31130;SDS011;20292;50.944;4.034;2022-08-19T01:36:46;47.85;;;32.90;;
31130;SDS011;20292;50.944;4.034;2022-08-19T01:39:16;46.10;;;31.85;;
31130;SDS011;20292;50.944;4.034;2022-08-19T01:41:46;44.58;;;29.70;;
31130;SDS011;20292;50.944;4.034;2022-08-19T01:44:13;41.10;;;28.90;;
31130;SDS011;20292;50.944;4.034;2022-08-19T01:46:38;39.85;;;28.10;;
31130;SDS011;20292;50.944;4.034;2022-08-19T01:49:05;38.58;;;26.33;;
31130;SDS011;20292;50.944;4.034;2022-08-19T01:51:31;37.03;;;25.00;;
31130;SDS011;20292;50.944;4.034;2022-08-19T01:53:57;38.72;;;26.77;;
31130;SDS011;20292;50.944;4.034;2022-08-19T01:56:23;38.75;;;26.70;;
31130;SDS011;20292;50.944;4.034;2022-08-19T01:58:49;39.17;;;26.13;;
31130;SDS011;20292;50.944;4.034;2022-08-19T02:01:19;41.85;;;26.00;;
31130;SDS011;20292;50.944;4.034;2022-08-19T02:03:45;41.22;;;26.23;;
31130;SDS011;20292;50.944;4.034;2022-08-19T02:06:11;36.40;;;25.13;;
31130;SDS011;20292;50.944;4.034;2022-08-19T02:08:37;40.10;;;26.58;;
31130;SDS011;20292;50.944;4.034;2022-08-19T02:11:04;38.75;;;26.02;;
31130;SDS011;20292;50.944;4.034;2022-08-19T02:13:31;37.42;;;25.60;;
31130;SDS011;20292;50.944;4.034;2022-08-19T02:15:57;40.38;;;26.40;;
31130;SDS011;20292;50.944;4.034;2022-08-19T02:18:22;40.22;;;25.88;;
31130;SDS011;20292;50.944;4.034;2022-08-19T02:20:48;38.55;;;26.00;;
31130;SDS011;20292;50.944;4.034;2022-08-19T02:23:14;40.75;;;25.50;;
31130;SDS011;20292;50.944;4.034;2022-08-19T02:25:41;38.60;;;25.95;;
31130;SDS011;20292;50.944;4.034;2022-08-19T02:28:12;36.28;;;25.00;;
31130;SDS011;20292;50.944;4.034;2022-08-19T02:30:38;36.00;;;24.30;;
31130;SDS011;20292;50.944;4.034;2022-08-19T02:33:06;35.28;;;23.55;;
31130;SDS011;20292;50.944;4.034;2022-08-19T02:35:32;41.65;;;24.90;;
31130;SDS011;20292;50.944;4.034;2022-08-19T02:37:57;41.55;;;23.90;;
31130;SDS011;20292;50.944;4.034;2022-08-19T02:40:47;34.45;;;22.58;;
31130;SDS011;20292;50.944;4.034;2022-08-19T02:43:16;37.13;;;24.33;;
31130;SDS011;20292;50.944;4.034;2022-08-19T02:45:42;37.90;;;22.70;;
31130;SDS011;20292;50.944;4.034;2022-08-19T02:48:08;36.97;;;23.60;;
31130;SDS011;20292;50.944;4.034;2022-08-19T02:50:37;35.55;;;22.92;;
31130;SDS011;20292;50.944;4.034;2022-08-19T02:53:04;35.17;;;22.60;;
31130;SDS011;20292;50.944;4.034;2022-08-19T02:55:31;35.42;;;22.00;;
31130;SDS011;20292;50.944;4.034;2022-08-19T02:57:56;34.83;;;22.08;;
31130;SDS011;20292;50.944;4.034;2022-08-19T03:00:22;34.70;;;22.13;;
31130;SDS011;20292;50.944;4.034;2022-08-19T03:02:49;40.88;;;22.40;;
31130;SDS011;20292;50.944;4.034;2022-08-19T03:05:14;38.70;;;22.67;;
31130;SDS011;20292;50.944;4.034;2022-08-19T03:07:40;36.80;;;22.38;;
31130;SDS011;20292;50.944;4.034;2022-08-19T03:10:06;42.08;;;22.88;;
31130;SDS011;20292;50.944;4.034;2022-08-19T03:12:34;43.58;;;22.33;;
31130;SDS011;20292;50.944;4.034;2022-08-19T03:15:02;31.83;;;21.73;;
31130;SDS011;20292;50.944;4.034;2022-08-19T03:17:30;34.50;;;20.90;;
31130;SDS011;20292;50.944;4.034;2022-08-19T03:19:56;34.15;;;21.98;;
31130;SDS011;20292;50.944;4.034;2022-08-19T03:22:22;31.42;;;20.35;;
31130;SDS011;20292;50.944;4.034;2022-08-19T03:24:47;32.20;;;19.60;;
31130;SDS011;20292;50.944;4.034;2022-08-19T03:27:13;32.90;;;19.33;;
31130;SDS011;20292;50.944;4.034;2022-08-19T03:29:39;27.77;;;18.90;;
31130;SDS011;20292;50.944;4.034;2022-08-19T03:32:05;36.53;;;19.20;;
31130;SDS011;20292;50.944;4.034;2022-08-19T03:34:31;32.25;;;18.00;;
31130;SDS011;20292;50.944;4.034;2022-08-19T03:36:59;29.92;;;19.02;;
31130;SDS011;20292;50.944;4.034;2022-08-19T03:39:32;30.77;;;18.38;;
31130;SDS011;20292;50.944;4.034;2022-08-19T03:41:58;33.55;;;18.02;;
31130;SDS011;20292;50.944;4.034;2022-08-19T03:44:26;26.27;;;17.63;;
31130;SDS011;20292;50.944;4.034;2022-08-19T03:46:53;31.55;;;18.27;;
31130;SDS011;20292;50.944;4.034;2022-08-19T03:49:23;30.88;;;18.23;;
31130;SDS011;20292;50.944;4.034;2022-08-19T03:51:51;28.80;;;17.77;;
31130;SDS011;20292;50.944;4.034;2022-08-19T03:54:19;26.92;;;18.25;;
31130;SDS011;20292;50.944;4.034;2022-08-19T03:56:48;26.30;;;17.13;;
31130;SDS011;20292;50.944;4.034;2022-08-19T03:59:16;30.25;;;18.42;;
31130;SDS011;20292;50.944;4.034;2022-08-19T04:01:47;27.73;;;17.38;;
31130;SDS011;20292;50.944;4.034;2022-08-19T04:04:13;28.77;;;17.23;;
31130;SDS011;20292;50.944;4.034;2022-08-19T04:06:38;28.13;;;16.52;;
31130;SDS011;20292;50.944;4.034;2022-08-19T04:09:05;29.58;;;17.67;;
31130;SDS011;20292;50.944;4.034;2022-08-19T04:11:34;27.23;;;16.33;;
31130;SDS011;20292;50.944;4.034;2022-08-19T04:14:07;27.48;;;16.67;;
31130;SDS011;20292;50.944;4.034;2022-08-19T04:16:34;26.23;;;16.77;;
31130;SDS011;20292;50.944;4.034;2022-08-19T04:19:00;32.08;;;17.45;;
31130;SDS011;20292;50.944;4.034;2022-08-19T04:21:27;30.77;;;17.50;;
31130;SDS011;20292;50.944;4.034;2022-08-19T04:23:54;31.35;;;17.38;;
31130;SDS011;20292;50.944;4.034;2022-08-19T04:26:22;32.47;;;18.00;;
31130;SDS011;20292;50.944;4.034;2022-08-19T04:28:50;26.77;;;15.80;;
31130;SDS011;20292;50.944;4.034;2022-08-19T04:31:21;29.45;;;16.75;;
31130;SDS011;20292;50.944;4.034;2022-08-19T04:33:50;27.75;;;17.42;;
31130;SDS011;20292;50.944;4.034;2022-08-19T04:36:26;35.00;;;17.48;;
31130;SDS011;20292;50.944;4.034;2022-08-19T04:38:54;31.27;;;17.30;;
31130;SDS011;20292;50.944;4.034;2022-08-19T04:41:22;30.70;;;17.55;;
31130;SDS011;20292;50.944;4.034;2022-08-19T04:44:06;38.10;;;18.98;;
31130;SDS011;20292;50.944;4.034;2022-08-19T04:46:32;33.47;;;18.52;;
31130;SDS011;20292;50.944;4.034;2022-08-19T04:48:58;30.60;;;18.20;;
31130;SDS011;20292;50.944;4.034;2022-08-19T04:51:25;30.35;;;18.50;;
31130;SDS011;20292;50.944;4.034;2022-08-19T04:53:51;35.50;;;18.95;;
31130;SDS011;20292;50.944;4.034;2022-08-19T04:56:17;43.72;;;21.13;;
31130;SDS011;20292;50.944;4.034;2022-08-19T04:58:47;35.30;;;19.63;;
31130;SDS011;20292;50.944;4.034;2022-08-19T05:01:21;31.70;;;18.75;;
31130;SDS011;20292;50.944;4.034;2022-08-19T05:03:48;38.15;;;19.85;;
31130;SDS011;20292;50.944;4.034;2022-08-19T05:06:15;28.75;;;19.15;;
31130;SDS011;20292;50.944;4.034;2022-08-19T05:08:42;28.92;;;18.52;;
31130;SDS011;20292;50.944;4.034;2022-08-19T05:13:34;40.55;;;19.85;;
31130;SDS011;20292;50.944;4.034;2022-08-19T05:16:00;31.15;;;19.15;;
31130;SDS011;20292;50.944;4.034;2022-08-19T05:18:25;30.20;;;18.27;;
31130;SDS011;20292;50.944;4.034;2022-08-19T05:21:11;31.83;;;18.83;;
31130;SDS011;20292;50.944;4.034;2022-08-19T05:23:57;34.08;;;17.17;;
31130;SDS011;20292;50.944;4.034;2022-08-19T05:26:23;31.80;;;17.38;;
31130;SDS011;20292;50.944;4.034;2022-08-19T05:28:52;24.65;;;16.00;;
31130;SDS011;20292;50.944;4.034;2022-08-19T05:31:18;27.70;;;16.25;;
31130;SDS011;20292;50.944;4.034;2022-08-19T05:33:44;23.92;;;14.75;;
31130;SDS011;20292;50.944;4.034;2022-08-19T05:36:10;26.13;;;15.02;;
31130;SDS011;20292;50.944;4.034;2022-08-19T05:38:36;23.65;;;14.95;;
31130;SDS011;20292;50.944;4.034;2022-08-19T05:41:12;25.42;;;14.52;;
31130;SDS011;20292;50.944;4.034;2022-08-19T05:43:38;22.50;;;12.95;;
31130;SDS011;20292;50.944;4.034;2022-08-19T05:46:05;25.63;;;13.93;;
31130;SDS011;20292;50.944;4.034;2022-08-19T05:48:32;22.35;;;13.45;;
31130;SDS011;20292;50.944;4.034;2022-08-19T05:51:02;24.17;;;13.90;;
31130;SDS011;20292;50.944;4.034;2022-08-19T05:53:32;24.15;;;16.38;;
31130;SDS011;20292;50.944;4.034;2022-08-19T05:56:03;22.13;;;12.75;;
31130;SDS011;20292;50.944;4.034;2022-08-19T05:58:36;20.50;;;11.80;;
31130;SDS011;20292;50.944;4.034;2022-08-19T06:01:03;22.27;;;12.18;;
31130;SDS011;20292;50.944;4.034;2022-08-19T06:03:33;22.08;;;12.00;;
31130;SDS011;20292;50.944;4.034;2022-08-19T06:06:02;18.45;;;11.32;;
31130;SDS011;20292;50.944;4.034;2022-08-19T06:08:32;22.38;;;12.25;;
31130;SDS011;20292;50.944;4.034;2022-08-19T06:10:58;20.45;;;11.52;;
31130;SDS011;20292;50.944;4.034;2022-08-19T06:13:39;19.27;;;11.85;;
31130;SDS011;20292;50.944;4.034;2022-08-19T06:16:05;20.45;;;11.45;;
31130;SDS011;20292;50.944;4.034;2022-08-19T06:18:30;17.98;;;10.77;;
31130;SDS011;20292;50.944;4.034;2022-08-19T06:20:58;16.60;;;10.75;;
31130;SDS011;20292;50.944;4.034;2022-08-19T06:23:23;22.08;;;11.18;;
31130;SDS011;20292;50.944;4.034;2022-08-19T06:25:50;21.92;;;12.50;;
31130;SDS011;20292;50.944;4.034;2022-08-19T06:28:16;33.10;;;11.57;;
31130;SDS011;20292;50.944;4.034;2022-08-19T06:30:41;17.58;;;10.10;;
31130;SDS011;20292;50.944;4.034;2022-08-19T06:33:07;22.80;;;10.38;;
31130;SDS011;20292;50.944;4.034;2022-08-19T06:35:33;13.88;;;9.48;;
31130;SDS011;20292;50.944;4.034;2022-08-19T06:38:04;18.40;;;10.30;;
31130;SDS011;20292;50.944;4.034;2022-08-19T06:40:30;20.15;;;10.23;;
31130;SDS011;20292;50.944;4.034;2022-08-19T06:42:56;18.73;;;10.73;;
31130;SDS011;20292;50.944;4.034;2022-08-19T06:45:23;16.63;;;10.18;;
31130;SDS011;20292;50.944;4.034;2022-08-19T06:47:49;16.65;;;9.82;;
31130;SDS011;20292;50.944;4.034;2022-08-19T06:50:14;28.00;;;22.92;;
31130;SDS011;20292;50.944;4.034;2022-08-19T06:52:40;20.27;;;10.35;;
31130;SDS011;20292;50.944;4.034;2022-08-19T06:55:06;21.92;;;10.18;;
31130;SDS011;20292;50.944;4.034;2022-08-19T06:57:31;15.55;;;9.98;;
31130;SDS011;20292;50.944;4.034;2022-08-19T06:59:58;15.85;;;9.68;;
31130;SDS011;20292;50.944;4.034;2022-08-19T07:02:25;20.60;;;9.80;;
31130;SDS011;20292;50.944;4.034;2022-08-19T07:04:51;19.33;;;9.57;;
31130;SDS011;20292;50.944;4.034;2022-08-19T07:07:17;17.67;;;9.15;;
31130;SDS011;20292;50.944;4.034;2022-08-19T07:09:44;15.65;;;9.10;;
31130;SDS011;20292;50.944;4.034;2022-08-19T07:12:12;12.75;;;8.07;;
31130;SDS011;20292;50.944;4.034;2022-08-19T07:14:40;15.73;;;8.63;;
31130;SDS011;20292;50.944;4.034;2022-08-19T07:17:08;18.15;;;8.30;;
31130;SDS011;20292;50.944;4.034;2022-08-19T07:19:35;16.10;;;8.35;;
31130;SDS011;20292;50.944;4.034;2022-08-19T07:22:03;15.27;;;8.52;;
31130;SDS011;20292;50.944;4.034;2022-08-19T07:24:30;13.50;;;8.40;;
31130;SDS011;20292;50.944;4.034;2022-08-19T07:26:58;15.98;;;7.60;;
31130;SDS011;20292;50.944;4.034;2022-08-19T07:29:26;14.27;;;7.63;;
31130;SDS011;20292;50.944;4.034;2022-08-19T07:31:53;15.25;;;7.93;;
31130;SDS011;20292;50.944;4.034;2022-08-19T07:34:23;12.82;;;7.30;;
31130;SDS011;20292;50.944;4.034;2022-08-19T07:36:50;10.93;;;6.97;;
31130;SDS011;20292;50.944;4.034;2022-08-19T07:39:17;15.05;;;7.03;;
31130;SDS011;20292;50.944;4.034;2022-08-19T07:41:51;13.93;;;7.15;;
31130;SDS011;20292;50.944;4.034;2022-08-19T07:44:18;12.45;;;7.35;;
31130;SDS011;20292;50.944;4.034;2022-08-19T07:46:46;14.75;;;7.65;;
31130;SDS011;20292;50.944;4.034;2022-08-19T07:49:14;13.27;;;7.50;;
31130;SDS011;20292;50.944;4.034;2022-08-19T07:51:57;12.80;;;7.47;;
31130;SDS011;20292;50.944;4.034;2022-08-19T07:54:26;15.88;;;7.85;;
31130;SDS011;20292;50.944;4.034;2022-08-19T07:56:54;16.92;;;8.15;;
31130;SDS011;20292;50.944;4.034;2022-08-19T07:59:21;17.85;;;8.20;;
31130;SDS011;20292;50.944;4.034;2022-08-19T08:01:48;13.77;;;7.50;;
31130;SDS011;20292;50.944;4.034;2022-08-19T08:04:15;16.70;;;7.18;;
31130;SDS011;20292;50.944;4.034;2022-08-19T08:09:45;16.85;;;8.10;;
31130;SDS011;20292;50.944;4.034;2022-08-19T08:12:16;12.73;;;7.70;;
31130;SDS011;20292;50.944;4.034;2022-08-19T08:14:50;14.98;;;7.63;;
31130;SDS011;20292;50.944;4.034;2022-08-19T08:17:21;18.00;;;7.97;;
31130;SDS011;20292;50.944;4.034;2022-08-19T08:19:48;15.07;;;7.70;;
31130;SDS011;20292;50.944;4.034;2022-08-19T08:22:16;13.45;;;7.43;;
31130;SDS011;20292;50.944;4.034;2022-08-19T08:25:06;14.32;;;8.32;;
31130;SDS011;20292;50.944;4.034;2022-08-19T08:27:38;17.98;;;7.80;;
31130;SDS011;20292;50.944;4.034;2022-08-19T08:30:06;15.60;;;7.85;;
31130;SDS011;20292;50.944;4.034;2022-08-19T08:32:36;11.98;;;8.07;;
31130;SDS011;20292;50.944;4.034;2022-08-19T08:35:07;18.55;;;7.85;;
31130;SDS011;20292;50.944;4.034;2022-08-19T08:37:42;16.05;;;7.47;;
31130;SDS011;20292;50.944;4.034;2022-08-19T08:40:21;14.27;;;7.35;;
31130;SDS011;20292;50.944;4.034;2022-08-19T08:43:06;26.85;;;8.18;;
31130;SDS011;20292;50.944;4.034;2022-08-19T08:45:47;12.93;;;7.20;;
31130;SDS011;20292;50.944;4.034;2022-08-19T08:48:42;14.43;;;7.40;;
31130;SDS011;20292;50.944;4.034;2022-08-19T08:51:15;15.40;;;7.22;;
31130;SDS011;20292;50.944;4.034;2022-08-19T08:53:44;12.63;;;7.47;;
31130;SDS011;20292;50.944;4.034;2022-08-19T08:56:13;11.80;;;6.80;;
31130;SDS011;20292;50.944;4.034;2022-08-19T09:01:16;10.88;;;7.35;;
31130;SDS011;20292;50.944;4.034;2022-08-19T09:03:42;17.65;;;7.60;;
31130;SDS011;20292;50.944;4.034;2022-08-19T09:08:54;14.57;;;7.22;;
31130;SDS011;20292;50.944;4.034;2022-08-19T09:14:00;17.85;;;7.80;;
31130;SDS011;20292;50.944;4.034;2022-08-19T09:16:34;16.38;;;6.93;;
31130;SDS011;20292;50.944;4.034;2022-08-19T09:19:02;14.88;;;7.10;;
31130;SDS011;20292;50.944;4.034;2022-08-19T09:21:30;13.43;;;6.40;;
31130;SDS011;20292;50.944;4.034;2022-08-19T09:23:56;17.73;;;7.20;;
31130;SDS011;20292;50.944;4.034;2022-08-19T09:26:22;11.15;;;6.68;;
31130;SDS011;20292;50.944;4.034;2022-08-19T09:28:49;12.52;;;6.38;;
31130;SDS011;20292;50.944;4.034;2022-08-19T09:31:20;11.18;;;6.05;;
31130;SDS011;20292;50.944;4.034;2022-08-19T09:33:47;10.35;;;5.93;;
31130;SDS011;20292;50.944;4.034;2022-08-19T09:36:15;10.80;;;6.07;;
31130;SDS011;20292;50.944;4.034;2022-08-19T09:38:43;18.05;;;6.00;;
31130;SDS011;20292;50.944;4.034;2022-08-19T09:41:14;13.52;;;5.38;;
31130;SDS011;20292;50.944;4.034;2022-08-19T09:43:44;13.07;;;6.00;;
31130;SDS011;20292;50.944;4.034;2022-08-19T09:46:11;11.02;;;6.50;;
31130;SDS011;20292;50.944;4.034;2022-08-19T09:48:40;10.18;;;6.53;;
31130;SDS011;20292;50.944;4.034;2022-08-19T09:51:08;13.50;;;5.85;;
31130;SDS011;20292;50.944;4.034;2022-08-19T09:53:35;12.48;;;6.20;;
31130;SDS011;20292;50.944;4.034;2022-08-19T09:56:03;8.30;;;6.03;;
31130;SDS011;20292;50.944;4.034;2022-08-19T09:58:29;12.35;;;6.47;;
31130;SDS011;20292;50.944;4.034;2022-08-19T10:00:55;11.55;;;5.85;;
31130;SDS011;20292;50.944;4.034;2022-08-19T10:03:23;8.98;;;5.70;;
31130;SDS011;20292;50.944;4.034;2022-08-19T10:05:49;8.10;;;5.05;;
31130;SDS011;20292;50.944;4.034;2022-08-19T10:08:16;9.40;;;5.50;;
31130;SDS011;20292;50.944;4.034;2022-08-19T10:10:47;6.60;;;4.82;;
31130;SDS011;20292;50.944;4.034;2022-08-19T10:13:14;10.70;;;5.20;;
31130;SDS011;20292;50.944;4.034;2022-08-19T10:15:42;9.65;;;4.95;;
31130;SDS011;20292;50.944;4.034;2022-08-19T10:18:08;13.60;;;5.07;;
31130;SDS011;20292;50.944;4.034;2022-08-19T10:20:34;10.43;;;5.35;;
31130;SDS011;20292;50.944;4.034;2022-08-19T10:23:03;8.00;;;5.18;;
31130;SDS011;20292;50.944;4.034;2022-08-19T10:25:28;10.18;;;5.70;;
31130;SDS011;20292;50.944;4.034;2022-08-19T10:27:54;9.27;;;5.10;;
31130;SDS011;20292;50.944;4.034;2022-08-19T10:30:20;8.05;;;5.25;;
31130;SDS011;20292;50.944;4.034;2022-08-19T10:32:46;8.73;;;5.38;;
31130;SDS011;20292;50.944;4.034;2022-08-19T10:35:12;9.52;;;5.07;;
31130;SDS011;20292;50.944;4.034;2022-08-19T10:37:39;11.52;;;5.25;;
31130;SDS011;20292;50.944;4.034;2022-08-19T10:40:06;9.35;;;5.10;;
31130;SDS011;20292;50.944;4.034;2022-08-19T10:42:33;9.95;;;5.72;;
31130;SDS011;20292;50.944;4.034;2022-08-19T10:45:00;10.13;;;4.93;;
31130;SDS011;20292;50.944;4.034;2022-08-19T10:47:26;7.03;;;5.47;;
31130;SDS011;20292;50.944;4.034;2022-08-19T10:49:52;11.10;;;5.03;;
31130;SDS011;20292;50.944;4.034;2022-08-19T10:52:39;13.07;;;5.43;;
31130;SDS011;20292;50.944;4.034;2022-08-19T10:55:05;10.32;;;6.20;;
31130;SDS011;20292;50.944;4.034;2022-08-19T10:57:50;11.68;;;5.78;;
31130;SDS011;20292;50.944;4.034;2022-08-19T11:00:17;8.32;;;5.32;;
31130;SDS011;20292;50.944;4.034;2022-08-19T11:02:44;11.35;;;5.38;;
31130;SDS011;20292;50.944;4.034;2022-08-19T11:05:11;7.53;;;4.65;;
31130;SDS011;20292;50.944;4.034;2022-08-19T11:07:40;8.10;;;4.65;;
31130;SDS011;20292;50.944;4.034;2022-08-19T11:10:06;8.40;;;5.43;;
31130;SDS011;20292;50.944;4.034;2022-08-19T11:12:35;8.35;;;4.97;;
31130;SDS011;20292;50.944;4.034;2022-08-19T11:15:04;7.05;;;4.80;;
31130;SDS011;20292;50.944;4.034;2022-08-19T11:17:35;9.05;;;6.25;;
31130;SDS011;20292;50.944;4.034;2022-08-19T11:20:09;9.23;;;4.82;;
31130;SDS011;20292;50.944;4.034;2022-08-19T11:22:37;7.07;;;5.13;;
31130;SDS011;20292;50.944;4.034;2022-08-19T11:25:02;7.45;;;4.45;;
31130;SDS011;20292;50.944;4.034;2022-08-19T11:27:29;6.00;;;4.10;;
31130;SDS011;20292;50.944;4.034;2022-08-19T11:29:55;5.72;;;3.60;;
31130;SDS011;20292;50.944;4.034;2022-08-19T11:32:21;7.72;;;4.85;;
31130;SDS011;20292;50.944;4.034;2022-08-19T11:34:46;8.18;;;4.85;;
31130;SDS011;20292;50.944;4.034;2022-08-19T11:37:12;10.48;;;5.30;;
31130;SDS011;20292;50.944;4.034;2022-08-19T11:39:38;8.02;;;5.68;;
31130;SDS011;20292;50.944;4.034;2022-08-19T11:42:04;12.68;;;6.80;;
31130;SDS011;20292;50.944;4.034;2022-08-19T11:44:49;7.95;;;6.55;;
31130;SDS011;20292;50.944;4.034;2022-08-19T11:47:15;7.45;;;6.50;;
31130;SDS011;20292;50.944;4.034;2022-08-19T11:49:41;8.60;;;6.38;;
31130;SDS011;20292;50.944;4.034;2022-08-19T11:52:07;10.65;;;6.40;;
31130;SDS011;20292;50.944;4.034;2022-08-19T11:54:33;9.25;;;6.78;;
31130;SDS011;20292;50.944;4.034;2022-08-19T11:56:58;8.73;;;7.15;;
31130;SDS011;20292;50.944;4.034;2022-08-19T11:59:26;10.10;;;6.88;;
31130;SDS011;20292;50.944;4.034;2022-08-19T12:01:52;9.10;;;5.72;;
31130;SDS011;20292;50.944;4.034;2022-08-19T12:04:17;7.78;;;6.03;;
31130;SDS011;20292;50.944;4.034;2022-08-19T12:06:43;8.20;;;5.47;;
31130;SDS011;20292;50.944;4.034;2022-08-19T12:09:09;7.00;;;5.20;;
31130;SDS011;20292;50.944;4.034;2022-08-19T12:11:36;6.97;;;5.35;;
31130;SDS011;20292;50.944;4.034;2022-08-19T12:14:03;5.97;;;5.25;;
31130;SDS011;20292;50.944;4.034;2022-08-19T12:16:29;7.32;;;5.07;;
31130;SDS011;20292;50.944;4.034;2022-08-19T12:18:56;6.50;;;4.47;;
31130;SDS011;20292;50.944;4.034;2022-08-19T12:21:24;6.47;;;4.80;;
31130;SDS011;20292;50.944;4.034;2022-08-19T12:23:53;5.60;;;4.82;;
31130;SDS011;20292;50.944;4.034;2022-08-19T12:26:20;6.40;;;4.70;;
31130;SDS011;20292;50.944;4.034;2022-08-19T12:28:46;7.82;;;4.60;;
31130;SDS011;20292;50.944;4.034;2022-08-19T12:31:13;7.22;;;4.80;;
31130;SDS011;20292;50.944;4.034;2022-08-19T12:33:39;8.40;;;4.85;;
31130;SDS011;20292;50.944;4.034;2022-08-19T12:36:07;5.03;;;4.20;;
31130;SDS011;20292;50.944;4.034;2022-08-19T12:38:37;8.15;;;4.97;;
31130;SDS011;20292;50.944;4.034;2022-08-19T12:41:04;5.38;;;4.88;;
31130;SDS011;20292;50.944;4.034;2022-08-19T12:43:31;8.60;;;4.53;;
31130;SDS011;20292;50.944;4.034;2022-08-19T12:45:57;7.40;;;4.30;;
31130;SDS011;20292;50.944;4.034;2022-08-19T12:48:23;7.38;;;4.40;;
31130;SDS011;20292;50.944;4.034;2022-08-19T12:50:48;7.13;;;4.95;;
31130;SDS011;20292;50.944;4.034;2022-08-19T12:53:14;7.03;;;3.40;;
31130;SDS011;20292;50.944;4.034;2022-08-19T12:55:40;6.10;;;3.50;;
31130;SDS011;20292;50.944;4.034;2022-08-19T12:58:07;4.25;;;3.85;;
31130;SDS011;20292;50.944;4.034;2022-08-19T13:00:33;4.40;;;3.90;;
31130;SDS011;20292;50.944;4.034;2022-08-19T13:02:59;3.97;;;3.17;;
31130;SDS011;20292;50.944;4.034;2022-08-19T13:05:27;4.10;;;3.22;;
31130;SDS011;20292;50.944;4.034;2022-08-19T13:07:55;5.32;;;3.55;;
31130;SDS011;20292;50.944;4.034;2022-08-19T13:10:22;9.13;;;3.70;;
31130;SDS011;20292;50.944;4.034;2022-08-19T13:12:53;5.55;;;3.70;;
31130;SDS011;20292;50.944;4.034;2022-08-19T13:15:19;3.95;;;3.53;;
31130;SDS011;20292;50.944;4.034;2022-08-19T13:17:47;4.00;;;2.92;;
31130;SDS011;20292;50.944;4.034;2022-08-19T13:20:15;4.78;;;2.53;;
31130;SDS011;20292;50.944;4.034;2022-08-19T13:22:42;3.05;;;2.10;;
31130;SDS011;20292;50.944;4.034;2022-08-19T13:25:10;3.08;;;2.25;;
31130;SDS011;20292;50.944;4.034;2022-08-19T13:27:36;4.50;;;3.28;;
31130;SDS011;20292;50.944;4.034;2022-08-19T13:30:04;5.57;;;2.40;;
31130;SDS011;20292;50.944;4.034;2022-08-19T13:32:50;2.47;;;2.10;;
31130;SDS011;20292;50.944;4.034;2022-08-19T13:35:34;4.35;;;2.22;;
31130;SDS011;20292;50.944;4.034;2022-08-19T13:38:00;3.67;;;2.13;;
31130;SDS011;20292;50.944;4.034;2022-08-19T13:40:30;2.78;;;2.33;;
31130;SDS011;20292;50.944;4.034;2022-08-19T13:42:58;5.45;;;1.85;;
31130;SDS011;20292;50.944;4.034;2022-08-19T13:45:25;2.90;;;1.70;;
31130;SDS011;20292;50.944;4.034;2022-08-19T13:47:53;3.20;;;2.40;;
31130;SDS011;20292;50.944;4.034;2022-08-19T13:50:22;4.80;;;3.00;;
31130;SDS011;20292;50.944;4.034;2022-08-19T13:52:53;5.50;;;3.85;;
31130;SDS011;20292;50.944;4.034;2022-08-19T13:55:19;5.95;;;2.70;;
31130;SDS011;20292;50.944;4.034;2022-08-19T13:57:45;5.93;;;2.40;;
31130;SDS011;20292;50.944;4.034;2022-08-19T14:00:15;4.65;;;2.80;;
31130;SDS011;20292;50.944;4.034;2022-08-19T14:02:45;3.50;;;2.20;;
31130;SDS011;20292;50.944;4.034;2022-08-19T14:05:14;5.13;;;2.60;;
31130;SDS011;20292;50.944;4.034;2022-08-19T14:07:41;3.78;;;2.97;;
31130;SDS011;20292;50.944;4.034;2022-08-19T14:10:07;7.65;;;3.55;;
31130;SDS011;20292;50.944;4.034;2022-08-19T14:12:35;6.45;;;2.97;;
31130;SDS011;20292;50.944;4.034;2022-08-19T14:15:01;7.22;;;2.88;;
31130;SDS011;20292;50.944;4.034;2022-08-19T14:17:29;4.15;;;2.65;;
31130;SDS011;20292;50.944;4.034;2022-08-19T14:19:58;4.75;;;2.53;;
31130;SDS011;20292;50.944;4.034;2022-08-19T14:22:32;4.15;;;2.33;;
31130;SDS011;20292;50.944;4.034;2022-08-19T14:24:58;2.72;;;1.95;;
31130;SDS011;20292;50.944;4.034;2022-08-19T14:27:24;3.90;;;1.55;;
31130;SDS011;20292;50.944;4.034;2022-08-19T14:29:50;7.97;;;2.35;;
31130;SDS011;20292;50.944;4.034;2022-08-19T14:32:17;3.22;;;1.70;;
31130;SDS011;20292;50.944;4.034;2022-08-19T14:34:43;4.03;;;2.28;;
31130;SDS011;20292;50.944;4.034;2022-08-19T14:37:11;3.67;;;1.52;;
31130;SDS011;20292;50.944;4.034;2022-08-19T14:39:38;3.40;;;2.03;;
31130;SDS011;20292;50.944;4.034;2022-08-19T14:42:06;4.68;;;2.33;;
31130;SDS011;20292;50.944;4.034;2022-08-19T14:44:33;8.27;;;2.17;;
31130;SDS011;20292;50.944;4.034;2022-08-19T14:46:59;4.85;;;2.00;;
31130;SDS011;20292;50.944;4.034;2022-08-19T14:49:24;2.08;;;1.88;;
31130;SDS011;20292;50.944;4.034;2022-08-19T14:51:50;3.35;;;2.03;;
31130;SDS011;20292;50.944;4.034;2022-08-19T14:54:16;6.97;;;2.50;;